Time,TemperatureF,DewpointF,PressureIn,WindDirection,WindDirectionDegrees,WindSpeedMPH,WindSpeedGustMPH,Humidity,HourlyPrecipIn,Conditions,Clouds,dailyrainin,SoftwareType,DateUTC
2013-09-29 00:14:00,52.2,51.7,29.98,SE,135,0.0,-999.0,98,-99.99,,,0.00,Acu-Link.com,2013-09-29 04:14:00,
2013-09-29 00:29:00,51.8,51.3,29.99,WNW,292,0.0,-999.0,98,-99.99,,,0.00,Acu-Link.com,2013-09-29 04:29:00,
2013-09-29 00:44:00,51.8,51.3,29.99,ESE,112,0.0,-999.0,98,-99.99,,,0.00,Acu-Link.com,2013-09-29 04:44:00,
2013-09-29 00:59:00,52.5,52.0,29.99,WNW,292,0.0,-999.0,98,-99.99,,,0.00,Acu-Link.com,2013-09-29 04:59:00,
2013-09-29 01:14:00,52.7,52.2,29.99,ENE,67,0.0,-999.0,98,-99.99,,,0.00,Acu-Link.com,2013-09-29 05:14:00,
2013-09-29 01:30:00,53.2,52.6,29.99,NE,45,0.0,-999.0,98,-99.99,,,0.00,Acu-Link.com,2013-09-29 05:30:00,
2013-09-29 01:45:00,53.4,52.8,29.99,East,90,0.0,-999.0,98,-99.99,,,0.00,Acu-Link.com,2013-09-29 05:45:00,
2013-09-29 02:00:00,53.6,53.0,29.99,NE,45,0.0,-999.0,98,-99.99,,,0.00,Acu-Link.com,2013-09-29 06:00:00,
2013-09-29 02:15:00,53.6,53.0,29.99,East,90,0.0,-999.0,98,-99.99,,,0.00,Acu-Link.com,2013-09-29 06:15:00,
2013-09-29 02:30:00,53.8,53.2,29.98,East,90,0.0,-999.0,98,-99.99,,,0.00,Acu-Link.com,2013-09-29 06:30:00,
2013-09-29 02:46:00,54.0,53.4,29.98,East,90,0.0,-999.0,98,-99.99,,,0.00,Acu-Link.com,2013-09-29 06:46:00,
2013-09-29 03:01:00,54.0,53.4,29.98,East,90,0.0,-999.0,98,-99.99,,,0.00,Acu-Link.com,2013-09-29 07:01:00,
2013-09-29 03:16:00,54.0,53.4,29.97,SSE,157,0.0,-999.0,98,-99.99,,,0.00,Acu-Link.com,2013-09-29 07:16:00,
2013-09-29 03:31:00,54.0,53.4,29.98,SSE,157,0.0,-999.0,98,-99.99,,,0.00,Acu-Link.com,2013-09-29 07:31:00,
2013-09-29 03:46:00,53.1,52.5,29.97,SSE,157,0.0,-999.0,98,-99.99,,,0.00,Acu-Link.com,2013-09-29 07:46:00,
2013-09-29 04:02:00,52.2,51.7,29.97,NE,45,0.0,-999.0,98,-99.99,,,0.00,Acu-Link.com,2013-09-29 08:02:00,
2013-09-29 04:17:00,51.8,51.3,29.97,ENE,67,0.0,-999.0,98,-99.99,,,0.00,Acu-Link.com,2013-09-29 08:17:00,
2013-09-29 04:32:00,51.3,50.8,29.96,NW,315,0.0,-999.0,98,-99.99,,,0.00,Acu-Link.com,2013-09-29 08:32:00,
2013-09-29 04:48:00,51.4,50.9,29.96,East,90,0.0,-999.0,98,-99.99,,,0.00,Acu-Link.com,2013-09-29 08:48:00,
2013-09-29 05:03:00,51.6,51.1,29.95,East,90,0.0,-999.0,98,-99.99,,,0.00,Acu-Link.com,2013-09-29 09:03:00,
2013-09-29 05:18:00,52.3,51.8,29.96,East,90,0.0,-999.0,98,-99.99,,,0.00,Acu-Link.com,2013-09-29 09:18:00,
2013-09-29 05:34:00,52.3,51.8,29.96,East,90,0.0,-999.0,98,-99.99,,,0.00,Acu-Link.com,2013-09-29 09:34:00,
2013-09-29 05:49:00,52.7,52.2,29.96,East,90,0.0,-999.0,98,-99.99,,,0.00,Acu-Link.com,2013-09-29 09:49:00,
2013-09-29 06:04:00,52.7,52.2,29.95,ENE,67,0.0,-999.0,98,-99.99,,,0.00,Acu-Link.com,2013-09-29 10:04:00,
2013-09-29 06:19:00,52.9,52.4,29.95,ENE,67,0.0,-999.0,98,-99.99,,,0.00,Acu-Link.com,2013-09-29 10:19:00,
2013-09-29 06:35:00,52.9,52.4,29.96,ENE,67,0.0,-999.0,98,-99.99,,,0.00,Acu-Link.com,2013-09-29 10:35:00,
2013-09-29 06:50:00,52.9,52.4,29.96,ENE,67,0.0,-999.0,98,-99.99,,,0.00,Acu-Link.com,2013-09-29 10:50:00,
2013-09-29 07:05:00,53.1,52.5,29.96,ENE,67,0.0,-999.0,98,-99.99,,,0.00,Acu-Link.com,2013-09-29 11:05:00,
2013-09-29 07:21:00,53.1,52.5,29.96,ENE,67,0.0,-999.0,98,-99.99,,,0.00,Acu-Link.com,2013-09-29 11:21:00,
2013-09-29 07:36:00,53.1,52.5,29.96,SSE,157,0.0,-999.0,98,-99.99,,,0.00,Acu-Link.com,2013-09-29 11:36:00,
2013-09-29 07:52:00,52.9,52.4,29.97,ENE,67,0.0,-999.0,98,-99.99,,,0.00,Acu-Link.com,2013-09-29 11:52:00,
2013-09-29 08:07:00,52.9,52.4,29.97,NW,315,0.0,-999.0,98,-99.99,,,0.00,Acu-Link.com,2013-09-29 12:07:00,
2013-09-29 08:22:00,52.7,52.2,29.97,ENE,67,0.0,-999.0,98,-99.99,,,0.00,Acu-Link.com,2013-09-29 12:22:00,
2013-09-29 08:38:00,52.5,52.0,29.97,East,90,0.0,-999.0,98,-99.99,,,0.00,Acu-Link.com,2013-09-29 12:38:00,
2013-09-29 08:53:00,55.8,55.2,29.97,South,180,0.0,-999.0,98,-99.99,,,0.00,Acu-Link.com,2013-09-29 12:53:00,
2013-09-29 09:08:00,56.8,56.2,29.97,East,90,0.0,-999.0,98,-99.99,,,0.00,Acu-Link.com,2013-09-29 13:08:00,
2013-09-29 09:23:00,57.6,57.0,29.97,ESE,112,0.0,-999.0,98,-99.99,,,0.00,Acu-Link.com,2013-09-29 13:23:00,
2013-09-29 09:38:00,58.6,58.0,29.97,NNE,22,2.2,-999.0,98,-99.99,,,0.00,Acu-Link.com,2013-09-29 13:38:00,
2013-09-29 09:54:00,60.3,59.7,29.97,East,90,1.7,-999.0,98,-99.99,,,0.00,Acu-Link.com,2013-09-29 13:54:00,
2013-09-29 10:09:00,63.3,62.7,29.97,West,270,0.0,-999.0,98,-99.99,,,0.00,Acu-Link.com,2013-09-29 14:09:00,
2013-09-29 10:24:00,61.0,60.4,29.97,NNW,337,2.2,-999.0,98,-99.99,,,0.00,Acu-Link.com,2013-09-29 14:24:00,
2013-09-29 10:39:00,64.0,63.4,29.96,South,180,2.2,-999.0,98,-99.99,,,0.00,Acu-Link.com,2013-09-29 14:39:00,
2013-09-29 10:54:00,63.5,62.9,29.96,ESE,112,1.1,-999.0,98,-99.99,,,0.00,Acu-Link.com,2013-09-29 14:54:00,
2013-09-29 11:10:00,63.1,62.5,29.95,WSW,247,1.1,-999.0,98,-99.99,,,0.00,Acu-Link.com,2013-09-29 15:10:00,
2013-09-29 11:25:00,64.4,63.8,29.95,West,270,2.2,-999.0,98,-99.99,,,0.00,Acu-Link.com,2013-09-29 15:25:00,
2013-09-29 11:40:00,63.5,62.9,29.95,ESE,112,0.0,-999.0,98,-99.99,,,0.00,Acu-Link.com,2013-09-29 15:40:00,
2013-09-29 11:55:00,65.1,64.5,29.95,South,180,1.1,-999.0,98,-99.99,,,0.00,Acu-Link.com,2013-09-29 15:55:00,
2013-09-29 12:10:00,66.0,65.4,29.94,SSE,157,2.2,-999.0,98,-99.99,,,0.00,Acu-Link.com,2013-09-29 16:10:00,
2013-09-29 12:26:00,68.9,68.3,29.94,ESE,112,3.2,-999.0,98,-99.99,,,0.00,Acu-Link.com,2013-09-29 16:26:00,
2013-09-29 12:41:00,71.4,70.8,29.93,WNW,292,2.7,-999.0,98,-99.99,,,0.00,Acu-Link.com,2013-09-29 16:41:00,
2013-09-29 12:56:00,68.7,68.1,29.93,SSE,157,2.2,-999.0,98,-99.99,,,0.00,Acu-Link.com,2013-09-29 16:56:00,
2013-09-29 13:11:00,69.4,68.8,29.92,NE,45,1.7,-999.0,98,-99.99,,,0.00,Acu-Link.com,2013-09-29 17:11:00,
2013-09-29 13:26:00,70.9,70.3,29.91,South,180,3.2,-999.0,98,-99.99,,,0.00,Acu-Link.com,2013-09-29 17:26:00,
2013-09-29 13:42:00,69.1,68.5,29.90,WSW,247,0.0,-999.0,98,-99.99,,,0.00,Acu-Link.com,2013-09-29 17:42:00,
2013-09-29 13:57:00,70.9,70.3,29.90,NNE,22,1.1,-999.0,98,-99.99,,,0.00,Acu-Link.com,2013-09-29 17:57:00,
2013-09-29 14:12:00,70.9,70.0,29.89,ESE,112,1.7,-999.0,97,-99.99,,,0.00,Acu-Link.com,2013-09-29 18:12:00,
2013-09-29 14:27:00,72.5,71.9,29.88,WSW,247,1.1,-999.0,98,-99.99,,,0.00,Acu-Link.com,2013-09-29 18:27:00,
2013-09-29 14:43:00,69.4,68.8,29.87,WNW,292,3.7,-999.0,98,-99.99,,,0.00,Acu-Link.com,2013-09-29 18:43:00,
2013-09-29 14:58:00,70.0,69.4,29.86,South,180,0.0,-999.0,98,-99.99,,,0.00,Acu-Link.com,2013-09-29 18:58:00,
2013-09-29 15:13:00,69.4,68.8,29.86,SW,225,2.7,-999.0,98,-99.99,,,0.00,Acu-Link.com,2013-09-29 19:13:00,
2013-09-29 15:28:00,71.6,71.0,29.85,SW,225,4.2,-999.0,98,-99.99,,,0.00,Acu-Link.com,2013-09-29 19:28:00,
2013-09-29 15:43:00,73.0,72.1,29.85,SSE,157,2.7,-999.0,97,-99.99,,,0.00,Acu-Link.com,2013-09-29 19:43:00,
2013-09-29 15:59:00,72.1,71.5,29.85,NE,45,2.2,-999.0,98,-99.99,,,0.00,Acu-Link.com,2013-09-29 19:59:00,
2013-09-29 16:14:00,72.1,71.5,29.84,ESE,112,1.7,-999.0,98,-99.99,,,0.00,Acu-Link.com,2013-09-29 20:14:00,
2013-09-29 16:29:00,72.7,71.2,29.84,NW,315,3.2,-999.0,95,-99.99,,,0.00,Acu-Link.com,2013-09-29 20:29:00,
2013-09-29 16:44:00,71.4,70.8,29.84,SSE,157,0.0,-999.0,98,-99.99,,,0.00,Acu-Link.com,2013-09-29 20:44:00,
2013-09-29 16:59:00,70.7,70.1,29.85,NNE,22,2.2,-999.0,98,-99.99,,,0.00,Acu-Link.com,2013-09-29 20:59:00,
2013-09-29 17:15:00,69.6,69.0,29.85,SSW,202,2.2,-999.0,98,-99.99,,,0.00,Acu-Link.com,2013-09-29 21:15:00,
2013-09-29 17:30:00,71.2,70.6,29.85,West,270,0.0,-999.0,98,-99.99,,,0.00,Acu-Link.com,2013-09-29 21:30:00,
2013-09-29 17:45:00,71.1,70.5,29.85,NE,45,1.7,-999.0,98,-99.99,,,0.00,Acu-Link.com,2013-09-29 21:45:00,
2013-09-29 18:15:00,68.0,67.4,29.85,South,180,0.0,-999.0,98,-99.99,,,0.00,Acu-Link.com,2013-09-29 22:15:00,
2013-09-29 18:31:00,67.3,66.7,29.85,NNE,22,0.0,-999.0,98,-99.99,,,0.00,Acu-Link.com,2013-09-29 22:31:00,
2013-09-29 18:46:00,66.2,65.6,29.85,SSE,157,0.0,-999.0,98,-99.99,,,0.00,Acu-Link.com,2013-09-29 22:46:00,
2013-09-29 19:01:00,65.1,64.5,29.85,SSE,157,0.0,-999.0,98,-99.99,,,0.00,Acu-Link.com,2013-09-29 23:01:00,
2013-09-29 19:16:00,64.2,63.6,29.86,West,270,0.0,-999.0,98,-99.99,,,0.00,Acu-Link.com,2013-09-29 23:16:00,
2013-09-29 19:31:00,63.0,62.4,29.86,South,180,0.0,-999.0,98,-99.99,,,0.00,Acu-Link.com,2013-09-29 23:31:00,
2013-09-29 19:47:00,62.2,61.6,29.85,East,90,0.0,-999.0,98,-99.99,,,0.00,Acu-Link.com,2013-09-29 23:47:00,
2013-09-29 20:02:00,61.7,61.1,29.86,East,90,0.0,-999.0,98,-99.99,,,0.00,Acu-Link.com,2013-09-30 00:02:00,
2013-09-29 20:17:00,61.5,60.9,29.85,NNW,337,0.0,-999.0,98,-99.99,,,0.00,Acu-Link.com,2013-09-30 00:17:00,
2013-09-29 20:32:00,61.3,60.7,29.85,ENE,67,0.0,-999.0,98,-99.99,,,0.00,Acu-Link.com,2013-09-30 00:32:00,
2013-09-29 20:48:00,61.0,60.4,29.86,ENE,67,0.0,-999.0,98,-99.99,,,0.00,Acu-Link.com,2013-09-30 00:48:00,
2013-09-29 21:03:00,60.8,60.2,29.86,NE,45,0.0,-999.0,98,-99.99,,,0.00,Acu-Link.com,2013-09-30 01:03:00,
2013-09-29 21:18:00,60.3,59.7,29.86,ENE,67,0.0,-999.0,98,-99.99,,,0.00,Acu-Link.com,2013-09-30 01:18:00,
2013-09-29 21:33:00,59.9,59.3,29.86,West,270,0.0,-999.0,98,-99.99,,,0.00,Acu-Link.com,2013-09-30 01:33:00,
2013-09-29 21:48:00,59.7,59.1,29.85,ENE,67,0.0,-999.0,98,-99.99,,,0.00,Acu-Link.com,2013-09-30 01:48:00,
2013-09-29 22:04:00,59.7,59.1,29.85,ESE,112,0.0,-999.0,98,-99.99,,,0.00,Acu-Link.com,2013-09-30 02:04:00,
2013-09-29 22:34:00,59.0,58.4,29.86,East,90,0.0,-999.0,98,-99.99,,,0.00,Acu-Link.com,2013-09-30 02:34:00,
2013-09-29 22:50:00,59.0,58.4,29.86,WNW,292,0.0,-999.0,98,-99.99,,,0.00,Acu-Link.com,2013-09-30 02:50:00,
2013-09-29 23:05:00,59.0,58.4,29.86,WNW,292,0.0,-999.0,98,-99.99,,,0.00,Acu-Link.com,2013-09-30 03:05:00,
2013-09-29 23:20:00,59.0,58.4,29.86,WNW,292,0.0,-999.0,98,-99.99,,,0.00,Acu-Link.com,2013-09-30 03:20:00,
2013-09-29 23:35:00,59.0,58.4,29.86,NW,315,0.0,-999.0,98,-99.99,,,0.00,Acu-Link.com,2013-09-30 03:35:00,
2013-09-29 23:50:00,59.0,58.4,29.86,NW,315,0.0,-999.0,98,-99.99,,,0.00,Acu-Link.com,2013-09-30 03:50:00,